Time;durP1;ratioP1;P1;durP2;ratioP2;P2;SDS_P1;SDS_P2;PMS_P1;PMS_P2;Temp;Humidity;BMP_temperature;BMP_pressure;BME280_temperature;BME280_humidity;BME280_pressure;Samples;Min_cycle;Max_cycle;Signal;HPM_P1;HPM_P2
2022/05/29 00:02:12;;;;;;;2.15;0.70;;;11.00;99.90;;;;;;4972548;28;20039;-77
2022/05/29 00:04:40;;;;;;;1.25;0.77;;;11.00;99.90;;;;;;4974434;28;20031;-77
2022/05/29 00:07:12;;;;;;;1.85;0.90;;;11.10;99.90;;;;;;4972883;28;20029;-77
2022/05/29 00:09:43;;;;;;;0.80;0.50;;;11.10;99.90;;;;;;4972628;28;20035;-77
2022/05/29 00:12:12;;;;;;;1.38;0.80;;;11.10;99.90;;;;;;4973029;28;20046;-77
2022/05/29 00:14:42;;;;;;;3.60;0.88;;;11.20;99.90;;;;;;4975048;28;20050;-77
2022/05/29 00:17:10;;;;;;;3.72;0.80;;;11.20;99.90;;;;;;4975851;28;20388;-77
2022/05/29 00:19:38;;;;;;;1.23;0.50;;;11.30;99.90;;;;;;4975736;28;20034;-77
2022/05/29 00:22:06;;;;;;;1.23;0.65;;;11.30;99.90;;;;;;4975878;28;20038;-77
2022/05/29 00:24:35;;;;;;;1.35;0.50;;;11.40;99.90;;;;;;4975914;28;20034;-77
2022/05/29 00:27:03;;;;;;;0.68;0.40;;;11.40;99.90;;;;;;4975756;28;20039;-77
2022/05/29 00:29:35;;;;;;;1.60;0.52;;;11.60;99.90;;;;;;4975727;28;20066;-77
2022/05/29 00:32:05;;;;;;;1.10;0.60;;;11.60;99.90;;;;;;4975581;28;20427;-77
2022/05/29 00:34:33;;;;;;;1.17;0.50;;;11.70;99.90;;;;;;4975696;28;20034;-77
2022/05/29 00:37:02;;;;;;;0.40;0.32;;;11.80;99.90;;;;;;4975598;28;20019;-77
2022/05/29 00:39:30;;;;;;;0.40;0.40;;;11.80;99.90;;;;;;4975562;28;20121;-77
2022/05/29 00:41:58;;;;;;;1.00;0.47;;;11.80;99.90;;;;;;4976007;28;20035;-77
2022/05/29 00:44:29;;;;;;;0.45;0.32;;;11.80;99.90;;;;;;4975430;28;20080;-77
2022/05/29 00:46:58;;;;;;;1.23;0.63;;;11.90;99.90;;;;;;4975254;28;20038;-77
2022/05/29 00:49:32;;;;;;;0.40;0.30;;;12.00;99.90;;;;;;4975740;28;20019;-77
2022/05/29 00:52:09;;;;;;;3.58;0.50;;;12.00;99.90;;;;;;4975172;28;20046;-77
2022/05/29 00:54:46;;;;;;;0.47;0.30;;;12.10;99.90;;;;;;4975565;28;20034;-77
2022/05/29 00:57:20;;;;;;;0.55;0.40;;;12.10;99.90;;;;;;4974118;28;20057;-77
2022/05/29 00:59:48;;;;;;;0.73;0.17;;;12.20;99.90;;;;;;4973703;28;20407;-77
2022/05/29 01:02:16;;;;;;;0.68;0.45;;;12.20;99.90;;;;;;4974853;28;20388;-77
2022/05/29 01:04:44;;;;;;;3.13;0.40;;;12.20;99.90;;;;;;4974971;28;20019;-76
2022/05/29 01:07:15;;;;;;;0.40;0.28;;;12.30;99.90;;;;;;4974464;28;20392;-77
2022/05/29 01:09:46;;;;;;;2.28;0.50;;;12.40;99.90;;;;;;4974805;28;20030;-77
2022/05/29 01:12:25;;;;;;;1.55;0.40;;;12.40;99.90;;;;;;4979579;28;20022;-77
2022/05/29 01:15:15;;;;;;;0.70;0.30;;;12.50;99.90;;;;;;4994168;28;20101;-76
2022/05/29 01:18:08;;;;;;;0.32;0.30;;;12.50;99.90;;;;;;4993902;28;20030;-77
2022/05/29 01:20:56;;;;;;;0.57;0.40;;;12.50;99.90;;;;;;4986821;28;20444;-77
2022/05/29 01:23:47;;;;;;;0.40;0.30;;;12.50;99.90;;;;;;4993827;28;20054;-76
2022/05/29 01:26:31;;;;;;;0.28;0.28;;;12.60;99.90;;;;;;4994153;28;20089;-77
2022/05/29 01:29:07;;;;;;;1.20;0.60;;;12.70;99.90;;;;;;4993778;28;20018;-77
2022/05/29 01:31:54;;;;;;;0.65;0.30;;;12.60;99.90;;;;;;4993630;28;20018;-76
2022/05/29 01:34:25;;;;;;;0.63;0.20;;;12.70;99.90;;;;;;4992661;28;20032;-76
2022/05/29 01:36:59;;;;;;;2.22;0.40;;;12.80;99.90;;;;;;4993998;28;20019;-76
2022/05/29 01:39:38;;;;;;;1.65;0.40;;;12.80;99.90;;;;;;4993839;28;20023;-76
2022/05/29 01:42:21;;;;;;;0.30;0.20;;;12.90;99.90;;;;;;4993781;28;20400;-77
2022/05/29 01:45:17;;;;;;;0.28;0.20;;;12.90;99.90;;;;;;4993219;28;20053;-77
2022/05/29 01:48:01;;;;;;;0.57;0.40;;;12.90;99.90;;;;;;4993697;28;20022;-75
2022/05/29 01:50:38;;;;;;;1.33;0.40;;;12.90;99.90;;;;;;4993524;28;20053;-77
2022/05/29 01:53:33;;;;;;;0.28;0.20;;;12.90;99.90;;;;;;4993142;28;20468;-77
2022/05/29 01:56:07;;;;;;;0.30;0.30;;;13.00;99.90;;;;;;4987294;28;20498;-77
2022/05/29 01:58:40;;;;;;;0.30;0.30;;;13.00;99.90;;;;;;4993544;28;20014;-76
2022/05/29 02:01:10;;;;;;;0.82;0.40;;;13.00;99.90;;;;;;4993693;28;20124;-76
2022/05/29 02:03:44;;;;;;;0.60;0.45;;;13.10;99.90;;;;;;4993714;28;20050;-77
2022/05/29 02:06:18;;;;;;;0.30;0.30;;;13.20;99.90;;;;;;4993750;28;20026;-76
2022/05/29 02:09:00;;;;;;;1.38;0.75;;;13.20;99.90;;;;;;4993428;28;20101;-77
2022/05/29 02:11:31;;;;;;;0.88;0.50;;;13.20;99.90;;;;;;4993453;28;20030;-76
2022/05/29 02:14:06;;;;;;;1.45;0.30;;;13.30;99.90;;;;;;4993619;28;20019;-77
2022/05/29 02:16:47;;;;;;;0.37;0.30;;;13.30;99.90;;;;;;4993723;28;20043;-77
2022/05/29 02:19:33;;;;;;;0.43;0.43;;;13.40;99.90;;;;;;4996307;28;20030;-77
2022/05/29 02:22:08;;;;;;;;;;;13.40;99.90;;;;;;4997553;28;20081;-77
2022/05/29 02:24:41;;;;;;;1.08;0.65;;;13.50;99.90;;;;;;4997344;28;19952;-77
2022/05/29 02:27:30;;;;;;;0.38;0.30;;;13.50;99.90;;;;;;4996513;28;20018;-77
2022/05/29 02:30:00;;;;;;;0.95;0.40;;;13.50;99.90;;;;;;4996790;28;20383;-77
2022/05/29 02:32:54;;;;;;;0.38;0.25;;;13.50;99.90;;;;;;4991532;28;20014;-77
2022/05/29 02:35:28;;;;;;;0.77;0.28;;;13.60;99.90;;;;;;4980933;28;20027;-76
2022/05/29 02:38:20;;;;;;;0.73;0.20;;;13.50;99.90;;;;;;4977399;28;20065;-76
2022/05/29 02:40:58;;;;;;;0.70;0.40;;;13.50;99.90;;;;;;4977252;28;20499;-76
2022/05/29 02:43:38;;;;;;;0.50;0.30;;;13.50;99.90;;;;;;4977247;28;20106;-76
2022/05/29 02:46:21;;;;;;;1.88;0.20;;;13.70;99.90;;;;;;4977323;28;20031;-77
2022/05/29 02:48:59;;;;;;;0.20;0.20;;;13.80;99.90;;;;;;4977257;28;20019;-76
2022/05/29 02:51:40;;;;;;;1.38;0.40;;;13.80;99.90;;;;;;4976843;28;20046;-76
2022/05/29 02:54:12;;;;;;;1.65;0.40;;;13.90;99.90;;;;;;4977244;28;20053;-76
2022/05/29 02:56:40;;;;;;;0.93;0.75;;;13.90;99.90;;;;;;4977229;28;20037;-77
2022/05/29 02:59:08;;;;;;;0.30;0.20;;;13.90;99.90;;;;;;4976944;28;20023;-75
2022/05/29 03:01:59;;;;;;;0.40;0.30;;;13.90;99.90;;;;;;4976965;28;20026;-75
2022/05/29 03:04:56;;;;;;;0.20;0.20;;;13.90;99.90;;;;;;4990527;28;20375;-76
2022/05/29 03:07:47;;;;;;;0.40;0.20;;;13.80;99.90;;;;;;4996320;28;20022;-76
2022/05/29 03:10:18;;;;;;;0.32;0.20;;;13.90;99.90;;;;;;4995603;28;20444;-76
2022/05/29 03:13:04;;;;;;;0.30;0.30;;;13.90;99.90;;;;;;4985838;28;20015;-76
2022/05/29 03:15:36;;;;;;;;;;;13.90;99.90;;;;;;4987028;28;20105;-76
2022/05/29 03:18:04;;;;;;;0.32;0.30;;;13.80;99.90;;;;;;5000682;28;19913;-76
2022/05/29 03:20:51;;;;;;;1.55;0.65;;;13.80;99.90;;;;;;4985203;28;20062;-77
2022/05/29 03:23:43;;;;;;;0.73;0.57;;;13.80;99.90;;;;;;4986859;28;20018;-76
2022/05/29 03:26:34;;;;;;;1.90;0.38;;;13.80;99.90;;;;;;4985437;28;20046;-76
2022/05/29 03:29:22;;;;;;;0.20;0.20;;;13.90;99.90;;;;;;4993142;28;20037;-76
2022/05/29 03:31:50;;;;;;;0.32;0.20;;;13.90;99.90;;;;;;4995732;28;20041;-77
2022/05/29 03:34:20;;;;;;;0.43;0.28;;;13.90;99.90;;;;;;4984174;28;20038;-77
2022/05/29 03:36:50;;;;;;;2.08;0.60;;;13.90;99.90;;;;;;4985690;28;20455;-76
2022/05/29 03:39:18;;;;;;;0.47;0.25;;;13.90;99.90;;;;;;4986411;28;20509;-76
2022/05/29 03:41:48;;;;;;;0.30;0.20;;;14.00;99.90;;;;;;4984226;28;20464;-76
2022/05/29 03:44:19;;;;;;;0.60;0.40;;;14.10;99.90;;;;;;4994820;28;20026;-76
2022/05/29 03:46:47;;;;;;;0.57;0.30;;;14.20;99.90;;;;;;4995498;28;20026;-76
2022/05/29 03:49:18;;;;;;;0.20;0.20;;;14.10;99.90;;;;;;4995673;28;20073;-76
2022/05/29 03:51:46;;;;;;;0.60;0.22;;;14.10;99.90;;;;;;4994616;28;20043;-77
2022/05/29 03:54:14;;;;;;;0.30;0.20;;;14.10;99.90;;;;;;4995927;28;20018;-76
2022/05/29 03:56:42;;;;;;;0.30;0.20;;;14.00;99.90;;;;;;4995741;28;20479;-76
2022/05/29 03:59:10;;;;;;;0.50;0.20;;;14.00;99.90;;;;;;4995701;28;20022;-76
2022/05/29 04:01:38;;;;;;;1.00;0.52;;;14.00;99.90;;;;;;4995376;28;20026;-77
2022/05/29 04:04:06;;;;;;;0.50;0.30;;;14.00;99.90;;;;;;4984003;28;20054;-77
2022/05/29 04:06:40;;;;;;;0.70;0.30;;;14.00;99.90;;;;;;4976645;28;20027;-76
2022/05/29 04:12:04;;;;;;;0.47;0.30;;;14.00;99.90;;;;;;4981463;28;20042;-76
2022/05/29 04:14:37;;;;;;;0.85;0.30;;;14.00;99.90;;;;;;4975979;28;20109;-76
2022/05/29 04:17:06;;;;;;;0.30;0.30;;;14.00;99.90;;;;;;4976012;28;20093;-76
2022/05/29 04:19:34;;;;;;;0.85;0.40;;;14.10;99.90;;;;;;4975946;28;20158;-76
2022/05/29 04:22:22;;;;;;;1.50;0.50;;;14.10;99.90;;;;;;4975598;28;20121;-77
2022/05/29 04:24:50;;;;;;;1.77;1.02;;;14.00;99.90;;;;;;4975702;28;20094;-76
2022/05/29 04:27:18;;;;;;;0.57;0.30;;;14.10;99.90;;;;;;4975731;28;20057;-77
2022/05/29 04:29:45;;;;;;;1.05;0.75;;;14.10;99.90;;;;;;4975562;28;20026;-77
2022/05/29 04:34:59;;;;;;;1.08;0.88;;;14.00;99.90;;;;;;4975738;28;20097;-76
2022/05/29 04:37:29;;;;;;;1.92;0.90;;;14.00;99.90;;;;;;4975542;28;20034;-76
2022/05/29 04:39:57;;;;;;;0.88;0.60;;;14.00;99.90;;;;;;4975198;28;20018;-76
2022/05/29 04:42:25;;;;;;;0.98;0.38;;;14.00;99.90;;;;;;4975362;28;20388;-76
2022/05/29 04:44:53;;;;;;;0.75;0.30;;;13.90;99.90;;;;;;4975335;28;20027;-77
2022/05/29 04:47:21;;;;;;;1.02;0.55;;;13.90;99.90;;;;;;4973087;28;20034;-77
2022/05/29 04:49:49;;;;;;;0.88;0.68;;;13.90;99.90;;;;;;4973199;28;20557;-76
2022/05/29 04:52:16;;;;;;;0.68;0.35;;;13.90;99.90;;;;;;4972928;28;20023;-76
2022/05/29 04:54:44;;;;;;;0.57;0.40;;;14.00;99.90;;;;;;4973008;28;20384;-76
2022/05/29 04:57:12;;;;;;;2.55;0.60;;;14.00;99.90;;;;;;4973001;28;20094;-76
2022/05/29 04:59:40;;;;;;;0.45;0.30;;;14.00;99.90;;;;;;4973174;28;20026;-76
2022/05/29 05:02:08;;;;;;;0.80;0.45;;;14.10;99.90;;;;;;4974563;28;20491;-76
2022/05/29 05:04:35;;;;;;;0.30;0.30;;;14.10;99.90;;;;;;4974961;28;20023;-76
2022/05/29 05:07:03;;;;;;;0.60;0.30;;;14.10;99.90;;;;;;4975009;28;20539;-76
2022/05/29 05:09:31;;;;;;;0.60;0.35;;;14.10;99.90;;;;;;4974921;28;20026;-76
2022/05/29 05:11:59;;;;;;;4.78;0.32;;;14.10;99.90;;;;;;4974702;28;20029;-76
2022/05/29 05:14:28;;;;;;;0.35;0.35;;;14.00;99.90;;;;;;4974830;28;20029;-76
2022/05/29 05:16:56;;;;;;;2.08;0.63;;;14.00;99.90;;;;;;4974835;28;20440;-76
2022/05/29 05:19:24;;;;;;;0.88;0.45;;;14.00;99.90;;;;;;4974640;28;20488;-76
2022/05/29 05:21:52;;;;;;;0.35;0.20;;;14.00;99.90;;;;;;4974486;28;20039;-77
2022/05/29 05:24:21;;;;;;;1.48;0.38;;;13.80;99.90;;;;;;4974587;28;20034;-77
2022/05/29 05:26:49;;;;;;;0.30;0.30;;;13.80;99.90;;;;;;4974504;28;20030;-77
2022/05/29 05:29:17;;;;;;;0.50;0.30;;;13.80;99.90;;;;;;4974702;28;20054;-77
2022/05/29 05:31:45;;;;;;;0.38;0.30;;;13.70;99.90;;;;;;4974339;28;20030;-76
2022/05/29 05:34:12;;;;;;;1.15;0.40;;;13.70;99.90;;;;;;4974809;28;20431;-76
2022/05/29 05:36:40;;;;;;;1.15;0.55;;;13.70;99.90;;;;;;4974442;28;20503;-77
2022/05/29 05:39:08;;;;;;;0.45;0.32;;;13.70;99.90;;;;;;4974493;28;20047;-74
2022/05/29 05:41:36;;;;;;;0.20;0.20;;;13.60;99.90;;;;;;4974414;28;20027;-76
2022/05/29 05:44:04;;;;;;;0.52;0.30;;;13.60;99.90;;;;;;4974420;28;20022;-76
2022/05/29 05:46:31;;;;;;;1.50;0.60;;;13.60;99.90;;;;;;4974340;28;20030;-76
2022/05/29 05:49:00;;;;;;;0.73;0.32;;;13.50;99.90;;;;;;4974709;28;20081;-76
2022/05/29 05:51:27;;;;;;;1.27;0.32;;;13.50;99.90;;;;;;4974626;28;20100;-76
2022/05/29 05:53:55;;;;;;;0.30;0.30;;;13.50;99.90;;;;;;4977315;28;20023;-76
2022/05/29 05:56:23;;;;;;;1.13;0.82;;;13.40;99.90;;;;;;4978391;28;20151;-76
2022/05/29 05:58:50;;;;;;;4.70;1.10;;;13.40;99.90;;;;;;4977179;28;20027;-76
2022/05/29 06:01:19;;;;;;;1.17;0.63;;;13.30;99.90;;;;;;4978168;28;20031;-76
2022/05/29 06:03:46;;;;;;;2.45;0.60;;;13.30;99.90;;;;;;4978376;28;20071;-76
2022/05/29 06:06:14;;;;;;;0.50;0.40;;;13.30;99.90;;;;;;4978156;28;20388;-76
2022/05/29 06:08:42;;;;;;;0.63;0.43;;;13.20;99.90;;;;;;4976932;28;20110;-75
2022/05/29 06:11:10;;;;;;;0.50;0.40;;;13.20;99.90;;;;;;4978070;28;20026;-76
2022/05/29 06:13:38;;;;;;;0.50;0.40;;;13.20;99.90;;;;;;4978258;28;20457;-75
2022/05/29 06:16:06;;;;;;;0.45;0.40;;;13.10;99.90;;;;;;4978104;28;20444;-76
2022/05/29 06:18:33;;;;;;;1.08;0.70;;;13.10;99.90;;;;;;4978164;28;20421;-76
2022/05/29 06:21:07;;;;;;;1.10;0.57;;;13.00;99.90;;;;;;4977940;28;20145;-76
2022/05/29 06:23:38;;;;;;;2.10;0.57;;;13.00;99.90;;;;;;4978013;28;20050;-76
2022/05/29 06:26:12;;;;;;;1.02;0.75;;;13.00;99.90;;;;;;4977997;28;20420;-76
2022/05/29 06:28:41;;;;;;;2.00;0.52;;;12.90;99.90;;;;;;4977980;28;20030;-76
2022/05/29 06:31:12;;;;;;;1.08;0.50;;;12.80;99.90;;;;;;4977664;28;20027;-76
2022/05/29 06:33:40;;;;;;;1.27;0.60;;;12.80;99.90;;;;;;4976443;28;20380;-76
2022/05/29 06:36:13;;;;;;;1.10;0.63;;;12.70;99.90;;;;;;4977446;28;20081;-75
2022/05/29 06:38:42;;;;;;;0.50;0.50;;;12.70;99.90;;;;;;4977770;28;20109;-75
2022/05/29 06:41:11;;;;;;;0.68;0.50;;;12.60;99.90;;;;;;4977655;28;20524;-76
2022/05/29 06:43:39;;;;;;;0.75;0.50;;;12.50;99.90;;;;;;4977749;28;20022;-75
2022/05/29 06:46:09;;;;;;;1.33;0.73;;;12.50;99.90;;;;;;4977474;28;20062;-76
2022/05/29 06:48:38;;;;;;;2.10;0.85;;;12.40;99.90;;;;;;4977510;28;20447;-75
2022/05/29 06:51:17;;;;;;;1.70;0.90;;;12.40;99.90;;;;;;4977132;28;20047;-75
2022/05/29 06:53:45;;;;;;;1.70;0.95;;;12.30;99.90;;;;;;4976106;28;20033;-76
2022/05/29 06:56:13;;;;;;;1.30;0.70;;;12.20;99.90;;;;;;4977440;28;20417;-76
2022/05/29 06:58:41;;;;;;;0.80;0.60;;;12.20;99.90;;;;;;4977284;28;20023;-76
2022/05/29 07:06:59;;;;;;;2.53;1.58;;;12.00;99.90;;;;;;4977578;28;20494;-76
2022/05/29 07:09:34;;;;;;;1.83;1.45;;;11.90;99.90;;;;;;4977058;28;20451;-76
2022/05/29 07:12:10;;;;;;;3.22;1.70;;;11.90;99.90;;;;;;4977081;28;20027;-76
2022/05/29 07:15:03;;;;;;;6.00;3.88;;;11.80;99.90;;;;;;4975801;28;20022;-76
2022/05/29 07:17:31;;;;;;;5.00;3.25;;;11.80;99.90;;;;;;4967915;28;20035;-77
2022/05/29 07:19:59;;;;;;;3.13;2.33;;;11.80;99.90;;;;;;4976814;28;20027;-76
2022/05/29 07:22:31;;;;;;;3.97;2.70;;;11.70;99.90;;;;;;4975695;28;20045;-76
2022/05/29 07:24:59;;;;;;;5.15;1.85;;;11.60;99.90;;;;;;4977289;28;20019;-76
2022/05/29 07:27:27;;;;;;;1.98;1.17;;;11.60;99.90;;;;;;4976906;28;20054;-77
2022/05/29 07:29:55;;;;;;;2.50;1.13;;;11.50;99.90;;;;;;4976912;28;20439;-77
2022/05/29 07:32:24;;;;;;;2.42;0.90;;;11.50;99.90;;;;;;4976561;28;20476;-77
2022/05/29 07:34:52;;;;;;;1.63;0.90;;;11.50;99.90;;;;;;4976668;28;20384;-76
2022/05/29 07:37:21;;;;;;;1.65;0.90;;;11.40;99.90;;;;;;4976712;28;20046;-76
2022/05/29 07:39:52;;;;;;;1.20;0.98;;;11.40;99.90;;;;;;4976513;28;20026;-77
2022/05/29 07:45:09;;;;;;;1.73;1.20;;;11.20;99.90;;;;;;4976604;28;20046;-77
2022/05/29 07:47:43;;;;;;;3.28;1.33;;;11.20;99.90;;;;;;4976714;28;20027;-76
2022/05/29 07:50:15;;;;;;;2.67;1.25;;;11.10;99.90;;;;;;4976270;28;20047;-76
2022/05/29 07:52:44;;;;;;;2.05;1.10;;;11.10;99.90;;;;;;4976292;28;20077;-76
2022/05/29 07:55:13;;;;;;;1.58;1.05;;;11.00;99.90;;;;;;4976301;28;20031;-77
2022/05/29 07:57:41;;;;;;;3.03;1.25;;;11.00;99.90;;;;;;4976166;28;20539;-76
2022/05/29 08:00:13;;;;;;;1.65;1.02;;;11.00;99.90;;;;;;4976182;28;20054;-76
2022/05/29 08:02:41;;;;;;;2.08;0.98;;;11.00;99.90;;;;;;4976391;28;20480;-77
2022/05/29 08:05:12;;;;;;;3.00;1.13;;;10.90;99.90;;;;;;4976270;28;20027;-76
2022/05/29 08:07:41;;;;;;;3.05;1.00;;;10.90;99.90;;;;;;4976085;28;20034;-77
2022/05/29 08:10:11;;;;;;;1.40;1.15;;;10.90;99.90;;;;;;4975922;28;20419;-75
2022/05/29 08:12:39;;;;;;;1.65;0.98;;;10.90;99.90;;;;;;4975786;28;20030;-76
2022/05/29 08:15:07;;;;;;;1.77;0.95;;;10.90;99.90;;;;;;4975121;28;20019;-77
2022/05/29 08:17:35;;;;;;;2.00;0.98;;;10.90;99.90;;;;;;4975921;28;20027;-77
2022/05/29 08:20:03;;;;;;;1.35;1.25;;;10.90;99.90;;;;;;4975772;28;20030;-75
2022/05/29 08:22:31;;;;;;;3.60;0.90;;;10.80;99.90;;;;;;4975718;28;20029;-76
2022/05/29 08:30:37;;;;;;;2.58;1.25;;;10.70;99.90;;;;;;4976009;28;20042;-77
2022/05/29 08:33:08;;;;;;;3.27;1.07;;;10.60;99.90;;;;;;4975620;28;20031;-77
2022/05/29 08:35:37;;;;;;;2.13;1.00;;;10.60;99.90;;;;;;4975638;28;20603;-77
2022/05/29 08:38:15;;;;;;;2.83;1.30;;;10.50;99.90;;;;;;5074322;27;20408;-75
2022/05/29 08:40:50;;;;;;;5.00;1.30;;;10.50;99.90;;;;;;5068600;28;20033;-75
2022/05/29 08:44:01;;;;;;;2.25;1.30;;;10.50;99.90;;;;;;5067183;28;20021;-75
2022/05/29 08:46:43;;;;;;;1.92;1.23;;;10.50;99.90;;;;;;5047468;28;20056;-76
2022/05/29 08:49:19;;;;;;;2.30;1.38;;;10.40;99.90;;;;;;5070366;28;20012;-75
2022/05/29 08:52:05;;;;;;;2.53;1.35;;;10.30;99.90;;;;;;5070067;28;20024;-75
2022/05/29 08:54:39;;;;;;;3.05;1.80;;;10.30;99.90;;;;;;5070386;28;20025;-75
2022/05/29 08:57:29;;;;;;;5.07;2.07;;;10.30;99.90;;;;;;5069475;28;20032;-75
2022/05/29 09:00:04;;;;;;;2.92;1.83;;;10.20;99.90;;;;;;5064904;28;20047;-75
2022/05/29 09:02:46;;;;;;;2.60;1.80;;;10.20;99.90;;;;;;5067086;28;20018;-75
2022/05/29 09:05:22;;;;;;;4.45;1.60;;;10.10;99.90;;;;;;5068432;28;20029;-75
2022/05/29 09:07:50;;;;;;;2.00;1.25;;;10.20;99.90;;;;;;5067396;28;20492;-75
2022/05/29 09:10:18;;;;;;;2.65;1.70;;;10.20;99.90;;;;;;5066448;28;20025;-76
2022/05/29 09:12:52;;;;;;;2.10;1.70;;;10.10;99.90;;;;;;5067207;28;20024;-76
2022/05/29 09:15:31;;;;;;;2.38;1.60;;;10.10;99.90;;;;;;5067878;28;20501;-75
2022/05/29 09:18:04;;;;;;;2.22;1.30;;;10.10;99.90;;;;;;5067781;28;20028;-75
2022/05/29 09:20:36;;;;;;;2.58;1.80;;;10.10;99.90;;;;;;5068626;28;20055;-75
2022/05/29 09:23:07;;;;;;;4.07;1.90;;;10.00;99.90;;;;;;5066379;28;20032;-75
2022/05/29 09:25:43;;;;;;;4.25;2.00;;;10.00;99.90;;;;;;5066687;28;20017;-75
2022/05/29 09:28:18;;;;;;;3.13;1.73;;;10.00;99.90;;;;;;5065696;28;20493;-76
2022/05/29 09:30:46;;;;;;;3.97;2.03;;;10.00;99.90;;;;;;5067262;28;20021;-76
2022/05/29 09:33:21;;;;;;;5.60;2.85;;;9.90;99.90;;;;;;5066435;28;20115;-76
2022/05/29 09:36:18;;;;;;;3.67;2.50;;;9.90;99.90;;;;;;5067735;28;20044;-76
2022/05/29 09:39:14;;;;;;;2.30;1.80;;;9.80;99.90;;;;;;5068472;28;20028;-76
2022/05/29 09:42:11;;;;;;;2.60;1.90;;;9.80;99.90;;;;;;5063426;28;20111;-75
2022/05/29 09:44:38;;;;;;;;;;;9.70;99.90;;;;;;5065641;28;20013;-75
2022/05/29 09:50:08;;;;;;;3.03;1.60;;;9.70;99.90;;;;;;5052742;28;20188;-76
2022/05/29 09:52:40;;;;;;;2.58;1.40;;;9.60;99.90;;;;;;5051769;28;20430;-76
2022/05/29 09:55:36;;;;;;;2.45;1.40;;;9.60;99.90;;;;;;5049759;28;20021;-75
2022/05/29 09:58:15;;;;;;;3.88;1.33;;;9.50;99.90;;;;;;5053500;28;20035;-76
2022/05/29 10:00:58;;;;;;;1.83;1.42;;;9.50;99.90;;;;;;5054023;28;20024;-75
2022/05/29 10:03:38;;;;;;;2.60;1.75;;;9.50;99.90;;;;;;5053617;28;20021;-75
2022/05/29 10:06:35;;;;;;;4.50;1.92;;;9.40;99.90;;;;;;5054757;28;20025;-75
2022/05/29 10:09:10;;;;;;;2.95;1.98;;;9.40;99.90;;;;;;5049688;28;20021;-76
2022/05/29 10:11:39;;;;;;;3.78;2.15;;;9.30;99.90;;;;;;5052095;28;20025;-75
2022/05/29 10:14:26;;;;;;;4.25;2.10;;;9.20;99.90;;;;;;5051645;28;20115;-76
2022/05/29 10:16:55;;;;;;;3.75;1.95;;;9.20;99.90;;;;;;5052568;28;20029;-76
2022/05/29 10:19:41;;;;;;;3.15;1.73;;;9.20;99.90;;;;;;5051532;28;20398;-76
2022/05/29 10:22:16;;;;;;;1.77;1.48;;;9.10;99.90;;;;;;5052655;28;20470;-76
2022/05/29 10:24:44;;;;;;;2.25;1.50;;;9.10;99.90;;;;;;5051860;28;20482;-75
2022/05/29 10:27:35;;;;;;;4.80;1.70;;;9.10;99.90;;;;;;5050662;28;20542;-75
2022/05/29 10:30:12;;;;;;;2.38;1.50;;;9.00;99.90;;;;;;5049969;28;20074;-76
2022/05/29 10:32:43;;;;;;;3.22;2.15;;;9.00;99.90;;;;;;5051449;28;20019;-76
2022/05/29 10:35:32;;;;;;;5.30;2.25;;;9.00;99.90;;;;;;5053355;28;20043;-76
2022/05/29 10:38:24;;;;;;;5.07;2.08;;;9.00;99.90;;;;;;5053181;28;20398;-75
2022/05/29 10:40:54;;;;;;;4.45;2.35;;;9.00;99.90;;;;;;5052219;28;20067;-76
2022/05/29 10:43:42;;;;;;;3.33;2.17;;;9.00;99.90;;;;;;5051642;28;20494;-76
2022/05/29 10:46:17;;;;;;;4.18;2.55;;;9.00;99.90;;;;;;5049706;28;20133;-76
2022/05/29 10:49:30;;;;;;;6.22;1.92;;;8.90;99.90;;;;;;5052650;28;20021;-75
2022/05/29 10:52:29;;;;;;;2.92;1.52;;;8.90;99.90;;;;;;5049858;28;20049;-76
2022/05/29 10:55:27;;;;;;;7.13;2.45;;;8.90;99.90;;;;;;5048940;28;20120;-76
2022/05/29 10:58:25;;;;;;;2.70;1.80;;;8.90;99.90;;;;;;5067643;28;20144;-76
2022/05/29 11:03:17;;;;;;;2.42;1.73;;;8.80;99.90;;;;;;5047839;28;20013;-76
2022/05/29 11:04:11;;;;;;;2.08;1.15;;;8.80;99.90;;;;;;5034325;28;20030;-81
2022/05/29 11:06:50;;;;;;;2.80;1.38;;;8.70;99.90;;;;;;5034695;28;20029;-80
2022/05/29 11:09:53;;;;;;;2.75;1.48;;;8.60;99.90;;;;;;5034537;28;20014;-79
2022/05/29 11:12:43;;;;;;;3.00;1.20;;;8.60;99.90;;;;;;5034092;28;20079;-78
2022/05/29 11:15:20;;;;;;;2.75;1.70;;;8.60;99.90;;;;;;5034318;28;20374;-80
2022/05/29 11:18:07;;;;;;;1.80;1.25;;;8.60;99.90;;;;;;5034190;28;20029;-80
2022/05/29 11:20:34;;;;;;;1.77;1.08;;;8.50;99.90;;;;;;5034145;28;20017;-78
2022/05/29 11:23:20;;;;;;;3.97;1.98;;;8.50;99.90;;;;;;5033838;28;20104;-79
2022/05/29 11:26:14;;;;;;;2.95;1.63;;;8.50;99.90;;;;;;5034174;28;20026;-74
2022/05/29 11:29:12;;;;;;;4.38;1.92;;;8.50;99.90;;;;;;5034200;28;20036;-79
2022/05/29 11:32:02;;;;;;;2.78;1.20;;;8.50;99.90;;;;;;5034101;28;20025;-80
2022/05/29 11:34:56;;;;;;;2.58;1.13;;;8.50;99.90;;;;;;5050207;28;20028;-79
2022/05/29 11:37:30;;;;;;;6.68;1.50;;;8.50;99.90;;;;;;5033524;28;20045;-80
2022/05/29 11:40:17;;;;;;;4.53;1.98;;;8.50;99.90;;;;;;5038334;28;20028;-78
2022/05/29 11:42:55;;;;;;;1.40;1.00;;;8.50;99.90;;;;;;5048500;28;20017;-79
2022/05/29 11:51:27;;;;;;;1.92;1.33;;;8.60;99.90;;;;;;5053712;28;20489;-77
2022/05/29 11:54:04;;;;;;;1.85;1.45;;;8.60;99.90;;;;;;5053564;28;20021;-78
2022/05/29 11:56:41;;;;;;;4.45;1.33;;;8.50;99.90;;;;;;5053483;28;20043;-78
2022/05/29 11:59:24;;;;;;;2.83;1.42;;;8.50;99.90;;;;;;5053622;28;20029;-73
2022/05/29 12:02:19;;;;;;;4.00;1.73;;;8.40;99.90;;;;;;5053349;28;20079;-77
2022/05/29 12:04:58;;;;;;;2.50;1.50;;;8.40;99.90;;;;;;5053320;28;20025;-74
2022/05/29 12:07:38;;;;;;;2.83;1.60;;;8.30;99.90;;;;;;5053294;28;20074;-77
2022/05/29 12:10:23;;;;;;;2.75;1.70;;;8.30;99.90;;;;;;5053272;28;20020;-73
2022/05/29 12:13:05;;;;;;;3.42;2.30;;;8.20;99.90;;;;;;5053042;28;20017;-77
2022/05/29 12:15:33;;;;;;;2.58;1.65;;;8.20;99.90;;;;;;5053270;28;20390;-79
2022/05/29 12:18:21;;;;;;;4.35;2.22;;;8.20;99.90;;;;;;5052793;28;20398;-80
2022/05/29 12:21:01;;;;;;;2.20;1.67;;;8.10;99.90;;;;;;5034568;28;20024;-80
2022/05/29 12:23:48;;;;;;;2.55;1.75;;;8.10;99.90;;;;;;5032863;28;20033;-76
2022/05/29 12:26:25;;;;;;;3.92;1.83;;;8.10;99.90;;;;;;5051448;28;20021;-76
2022/05/29 12:29:05;;;;;;;2.30;1.77;;;8.10;99.90;;;;;;5050788;28;20500;-75
2022/05/29 12:31:36;;;;;;;2.78;2.08;;;8.00;99.90;;;;;;5049921;28;20025;-75
2022/05/29 12:34:04;;;;;;;2.78;2.17;;;8.00;99.90;;;;;;5051963;28;20025;-73
2022/05/29 12:36:40;;;;;;;4.32;2.20;;;8.00;99.90;;;;;;5051633;28;20541;-77
2022/05/29 12:39:32;;;;;;;4.47;1.73;;;8.00;99.90;;;;;;5048653;28;20494;-77
2022/05/29 12:42:05;;;;;;;3.78;1.63;;;7.90;99.90;;;;;;5050271;28;20459;-72
2022/05/29 12:44:50;;;;;;;2.25;1.48;;;7.90;99.90;;;;;;5050414;28;20096;-77
2022/05/29 12:47:46;;;;;;;5.55;2.20;;;7.90;99.90;;;;;;5050017;28;20092;-77
2022/05/29 12:50:43;;;;;;;2.42;1.40;;;7.90;99.90;;;;;;5048306;28;20033;-77
2022/05/29 12:53:44;;;;;;;4.65;1.73;;;8.00;99.90;;;;;;5049307;28;20029;-77
2022/05/29 12:56:40;;;;;;;1.75;1.20;;;7.90;99.90;;;;;;5049843;28;20476;-76
2022/05/29 12:59:35;;;;;;;3.38;1.92;;;8.00;99.90;;;;;;5040788;28;20159;-77
2022/05/29 13:02:11;;;;;;;2.88;1.58;;;7.90;99.90;;;;;;5049264;28;20034;-78
2022/05/29 13:04:56;;;;;;;;;;;7.90;99.90;;;;;;5050363;28;20017;-78
2022/05/29 13:07:30;;;;;;;1.60;1.08;;;8.00;99.90;;;;;;5048776;28;19908;-77
2022/05/29 13:10:16;;;;;;;3.05;1.50;;;8.00;99.90;;;;;;5050591;28;20025;-78
2022/05/29 13:12:54;;;;;;;2.45;1.30;;;8.00;99.90;;;;;;5049674;28;20123;-77
2022/05/29 13:15:29;;;;;;;2.97;1.17;;;8.10;99.90;;;;;;5050917;28;20075;-76
2022/05/29 13:18:01;;;;;;;;;;;8.10;99.90;;;;;;5052338;28;20033;-77
2022/05/29 13:20:29;;;;;;;3.15;1.48;;;8.10;99.90;;;;;;5047280;28;19948;-76
2022/05/29 13:23:03;;;;;;;2.75;1.13;;;8.20;99.90;;;;;;5047825;28;20021;-78
2022/05/29 13:25:38;;;;;;;4.80;1.17;;;8.20;99.90;;;;;;5052552;28;20527;-74
2022/05/29 13:28:28;;;;;;;1.55;0.90;;;8.20;99.90;;;;;;5054679;28;20084;-77
2022/05/29 13:31:06;;;;;;;1.35;0.80;;;8.20;99.90;;;;;;5053998;28;20017;-75
2022/05/29 13:33:55;;;;;;;4.47;0.90;;;8.20;99.90;;;;;;5055251;28;20470;-78
2022/05/29 13:36:46;;;;;;;1.75;1.17;;;8.30;99.90;;;;;;5051447;28;20080;-78
2022/05/29 13:39:25;;;;;;;1.90;1.15;;;8.30;99.90;;;;;;5053330;28;20035;-78
2022/05/29 13:42:10;;;;;;;2.40;1.08;;;8.30;99.90;;;;;;5053654;28;20100;-78
2022/05/29 13:44:42;;;;;;;1.17;1.00;;;8.40;99.90;;;;;;5054174;28;20090;-79
2022/05/29 13:47:25;;;;;;;2.97;1.63;;;8.30;99.90;;;;;;5053041;28;20024;-76
2022/05/29 13:50:11;;;;;;;3.22;1.58;;;8.30;99.90;;;;;;5051209;28;20017;-75
2022/05/29 13:52:43;;;;;;;1.75;1.02;;;8.30;99.90;;;;;;5053717;28;20473;-76
2022/05/29 13:55:26;;;;;;;2.42;0.90;;;8.30;99.90;;;;;;5052936;28;20047;-78
2022/05/29 14:04:06;;;;;;;1.60;0.88;;;8.30;99.90;;;;;;5050713;28;20043;-77
2022/05/29 14:06:43;;;;;;;0.82;0.82;;;8.20;99.90;;;;;;5052876;28;20025;-78
2022/05/29 14:09:13;;;;;;;1.63;0.80;;;8.20;99.90;;;;;;5052773;28;21105;-78
2022/05/29 14:11:49;;;;;;;1.15;0.77;;;8.10;99.90;;;;;;5053437;28;20017;-74